sensor_id;sensor_type;location;lat;lon;timestamp;P1;durP1;ratioP1;P2;durP2;ratioP2
79751;SDS011;69234;47.446;21.636;2023-04-29T00:00:19;18.90;;;18.63;;
79751;SDS011;69234;47.446;21.636;2023-04-29T00:00:50;17.53;;;17.50;;
79751;SDS011;69234;47.446;21.636;2023-04-29T00:01:20;17.37;;;17.03;;
79751;SDS011;69234;47.446;21.636;2023-04-29T00:01:51;18.13;;;18.03;;
79751;SDS011;69234;47.446;21.636;2023-04-29T00:02:22;17.37;;;17.37;;
79751;SDS011;69234;47.446;21.636;2023-04-29T00:02:53;17.73;;;17.67;;
79751;SDS011;69234;47.446;21.636;2023-04-29T00:03:23;16.87;;;16.50;;
79751;SDS011;69234;47.446;21.636;2023-04-29T00:03:57;17.53;;;17.17;;
79751;SDS011;69234;47.446;21.636;2023-04-29T00:04:28;17.30;;;17.27;;
79751;SDS011;69234;47.446;21.636;2023-04-29T00:04:59;17.53;;;17.53;;
79751;SDS011;69234;47.446;21.636;2023-04-29T00:05:30;16.77;;;16.77;;
79751;SDS011;69234;47.446;21.636;2023-04-29T00:06:01;17.27;;;17.27;;
79751;SDS011;69234;47.446;21.636;2023-04-29T00:06:32;17.77;;;17.63;;
79751;SDS011;69234;47.446;21.636;2023-04-29T00:07:04;17.60;;;17.57;;
79751;SDS011;69234;47.446;21.636;2023-04-29T00:07:34;18.00;;;18.00;;
79751;SDS011;69234;47.446;21.636;2023-04-29T00:08:05;17.13;;;17.13;;
79751;SDS011;69234;47.446;21.636;2023-04-29T00:08:36;17.13;;;17.13;;
79751;SDS011;69234;47.446;21.636;2023-04-29T00:09:07;17.23;;;17.23;;
79751;SDS011;69234;47.446;21.636;2023-04-29T00:09:37;17.67;;;17.67;;
79751;SDS011;69234;47.446;21.636;2023-04-29T00:10:08;17.53;;;17.53;;
79751;SDS011;69234;47.446;21.636;2023-04-29T00:10:43;17.40;;;17.40;;
79751;SDS011;69234;47.446;21.636;2023-04-29T00:11:14;17.27;;;17.27;;
79751;SDS011;69234;47.446;21.636;2023-04-29T00:11:45;17.63;;;17.57;;
79751;SDS011;69234;47.446;21.636;2023-04-29T00:12:17;17.47;;;17.47;;
79751;SDS011;69234;47.446;21.636;2023-04-29T00:12:47;17.97;;;17.97;;
79751;SDS011;69234;47.446;21.636;2023-04-29T00:13:20;17.93;;;17.93;;
79751;SDS011;69234;47.446;21.636;2023-04-29T00:13:51;18.07;;;18.07;;
79751;SDS011;69234;47.446;21.636;2023-04-29T00:14:22;18.70;;;18.70;;
79751;SDS011;69234;47.446;21.636;2023-04-29T00:14:53;18.30;;;18.30;;
79751;SDS011;69234;47.446;21.636;2023-04-29T00:15:24;18.10;;;18.10;;
79751;SDS011;69234;47.446;21.636;2023-04-29T00:15:55;17.93;;;17.93;;
79751;SDS011;69234;47.446;21.636;2023-04-29T00:16:25;18.77;;;18.77;;
79751;SDS011;69234;47.446;21.636;2023-04-29T00:16:56;18.80;;;18.80;;
79751;SDS011;69234;47.446;21.636;2023-04-29T00:17:27;18.10;;;18.10;;
79751;SDS011;69234;47.446;21.636;2023-04-29T00:17:58;17.47;;;17.47;;
79751;SDS011;69234;47.446;21.636;2023-04-29T00:18:28;17.60;;;17.57;;
79751;SDS011;69234;47.446;21.636;2023-04-29T00:18:59;17.70;;;17.70;;
79751;SDS011;69234;47.446;21.636;2023-04-29T00:19:30;17.33;;;17.33;;
79751;SDS011;69234;47.446;21.636;2023-04-29T00:20:01;17.17;;;17.17;;
79751;SDS011;69234;47.446;21.636;2023-04-29T00:20:32;18.10;;;18.10;;
79751;SDS011;69234;47.446;21.636;2023-04-29T00:21:03;18.20;;;18.20;;
79751;SDS011;69234;47.446;21.636;2023-04-29T00:21:38;18.60;;;18.60;;
79751;SDS011;69234;47.446;21.636;2023-04-29T00:22:09;18.70;;;18.63;;
79751;SDS011;69234;47.446;21.636;2023-04-29T00:22:40;19.03;;;19.03;;
79751;SDS011;69234;47.446;21.636;2023-04-29T00:23:10;18.57;;;18.57;;
79751;SDS011;69234;47.446;21.636;2023-04-29T00:23:41;19.23;;;19.23;;
79751;SDS011;69234;47.446;21.636;2023-04-29T00:24:12;18.30;;;18.27;;
79751;SDS011;69234;47.446;21.636;2023-04-29T00:24:43;19.37;;;19.27;;
79751;SDS011;69234;47.446;21.636;2023-04-29T00:25:13;19.03;;;19.00;;
79751;SDS011;69234;47.446;21.636;2023-04-29T00:25:45;18.70;;;18.67;;
79751;SDS011;69234;47.446;21.636;2023-04-29T00:26:15;18.70;;;18.40;;
79751;SDS011;69234;47.446;21.636;2023-04-29T00:26:49;18.90;;;18.77;;
79751;SDS011;69234;47.446;21.636;2023-04-29T00:27:20;19.33;;;18.93;;
79751;SDS011;69234;47.446;21.636;2023-04-29T00:27:51;20.13;;;19.57;;
79751;SDS011;69234;47.446;21.636;2023-04-29T00:28:22;20.33;;;19.90;;
79751;SDS011;69234;47.446;21.636;2023-04-29T00:28:53;18.90;;;18.80;;
79751;SDS011;69234;47.446;21.636;2023-04-29T00:29:24;19.00;;;19.00;;
79751;SDS011;69234;47.446;21.636;2023-04-29T00:29:54;20.10;;;20.10;;
79751;SDS011;69234;47.446;21.636;2023-04-29T00:30:29;19.33;;;19.30;;
79751;SDS011;69234;47.446;21.636;2023-04-29T00:31:01;18.03;;;17.93;;
79751;SDS011;69234;47.446;21.636;2023-04-29T00:31:32;18.30;;;18.10;;
79751;SDS011;69234;47.446;21.636;2023-04-29T00:32:03;18.33;;;18.07;;
79751;SDS011;69234;47.446;21.636;2023-04-29T00:32:34;17.37;;;17.37;;
79751;SDS011;69234;47.446;21.636;2023-04-29T00:33:05;17.60;;;17.60;;
79751;SDS011;69234;47.446;21.636;2023-04-29T00:33:36;17.57;;;17.57;;
79751;SDS011;69234;47.446;21.636;2023-04-29T00:34:07;18.00;;;17.93;;
79751;SDS011;69234;47.446;21.636;2023-04-29T00:34:38;17.70;;;17.60;;
79751;SDS011;69234;47.446;21.636;2023-04-29T00:35:09;17.63;;;17.50;;
79751;SDS011;69234;47.446;21.636;2023-04-29T00:35:40;16.80;;;16.80;;
79751;SDS011;69234;47.446;21.636;2023-04-29T00:36:11;17.53;;;17.37;;
79751;SDS011;69234;47.446;21.636;2023-04-29T00:36:41;16.93;;;16.87;;
79751;SDS011;69234;47.446;21.636;2023-04-29T00:37:12;17.00;;;17.00;;
79751;SDS011;69234;47.446;21.636;2023-04-29T00:37:43;17.33;;;17.33;;
79751;SDS011;69234;47.446;21.636;2023-04-29T00:38:14;17.00;;;17.00;;
79751;SDS011;69234;47.446;21.636;2023-04-29T00:38:44;16.70;;;16.70;;
79751;SDS011;69234;47.446;21.636;2023-04-29T00:39:16;16.23;;;16.23;;
79751;SDS011;69234;47.446;21.636;2023-04-29T00:39:47;16.73;;;16.73;;
79751;SDS011;69234;47.446;21.636;2023-04-29T00:40:18;17.87;;;17.87;;
79751;SDS011;69234;47.446;21.636;2023-04-29T00:40:49;16.80;;;16.70;;
79751;SDS011;69234;47.446;21.636;2023-04-29T00:41:20;17.63;;;17.57;;
79751;SDS011;69234;47.446;21.636;2023-04-29T00:41:51;17.70;;;17.53;;
79751;SDS011;69234;47.446;21.636;2023-04-29T00:42:22;18.13;;;17.97;;
79751;SDS011;69234;47.446;21.636;2023-04-29T00:42:54;18.37;;;18.23;;
79751;SDS011;69234;47.446;21.636;2023-04-29T00:43:26;17.53;;;17.50;;
79751;SDS011;69234;47.446;21.636;2023-04-29T00:43:57;17.77;;;17.60;;
79751;SDS011;69234;47.446;21.636;2023-04-29T00:44:27;18.13;;;17.80;;
79751;SDS011;69234;47.446;21.636;2023-04-29T00:44:58;17.40;;;17.37;;
79751;SDS011;69234;47.446;21.636;2023-04-29T00:45:29;17.97;;;17.97;;
79751;SDS011;69234;47.446;21.636;2023-04-29T00:46:00;17.30;;;17.30;;
79751;SDS011;69234;47.446;21.636;2023-04-29T00:46:30;18.50;;;18.50;;
79751;SDS011;69234;47.446;21.636;2023-04-29T00:47:02;17.50;;;17.50;;
79751;SDS011;69234;47.446;21.636;2023-04-29T00:47:33;17.20;;;17.17;;
79751;SDS011;69234;47.446;21.636;2023-04-29T00:48:04;18.43;;;18.37;;
79751;SDS011;69234;47.446;21.636;2023-04-29T00:48:35;18.17;;;18.00;;
79751;SDS011;69234;47.446;21.636;2023-04-29T00:49:06;17.47;;;17.13;;
79751;SDS011;69234;47.446;21.636;2023-04-29T00:49:40;17.27;;;17.20;;
79751;SDS011;69234;47.446;21.636;2023-04-29T00:50:11;18.20;;;18.03;;
79751;SDS011;69234;47.446;21.636;2023-04-29T00:50:42;17.87;;;17.77;;
79751;SDS011;69234;47.446;21.636;2023-04-29T00:51:13;17.40;;;17.40;;
79751;SDS011;69234;47.446;21.636;2023-04-29T00:51:47;17.00;;;17.00;;
79751;SDS011;69234;47.446;21.636;2023-04-29T00:52:18;17.00;;;17.00;;
79751;SDS011;69234;47.446;21.636;2023-04-29T00:52:50;17.63;;;17.63;;
79751;SDS011;69234;47.446;21.636;2023-04-29T00:53:22;17.57;;;17.43;;
79751;SDS011;69234;47.446;21.636;2023-04-29T00:53:53;17.73;;;17.43;;
79751;SDS011;69234;47.446;21.636;2023-04-29T00:54:24;17.83;;;17.77;;
79751;SDS011;69234;47.446;21.636;2023-04-29T00:54:55;16.87;;;16.87;;
79751;SDS011;69234;47.446;21.636;2023-04-29T00:55:26;17.13;;;17.03;;
79751;SDS011;69234;47.446;21.636;2023-04-29T00:55:59;17.13;;;17.00;;
79751;SDS011;69234;47.446;21.636;2023-04-29T00:56:31;17.43;;;17.37;;
79751;SDS011;69234;47.446;21.636;2023-04-29T00:57:04;18.23;;;18.17;;
79751;SDS011;69234;47.446;21.636;2023-04-29T00:57:36;18.77;;;18.60;;
79751;SDS011;69234;47.446;21.636;2023-04-29T00:58:08;18.47;;;18.47;;
79751;SDS011;69234;47.446;21.636;2023-04-29T00:58:40;17.63;;;17.63;;
79751;SDS011;69234;47.446;21.636;2023-04-29T00:59:18;18.97;;;18.73;;
79751;SDS011;69234;47.446;21.636;2023-04-29T00:59:50;18.20;;;18.20;;
79751;SDS011;69234;47.446;21.636;2023-04-29T01:00:21;17.97;;;17.93;;
79751;SDS011;69234;47.446;21.636;2023-04-29T01:00:54;18.40;;;18.37;;
79751;SDS011;69234;47.446;21.636;2023-04-29T01:01:25;18.83;;;18.77;;
79751;SDS011;69234;47.446;21.636;2023-04-29T01:02:00;18.13;;;18.13;;
79751;SDS011;69234;47.446;21.636;2023-04-29T01:02:33;18.33;;;18.33;;
79751;SDS011;69234;47.446;21.636;2023-04-29T01:03:04;18.03;;;18.03;;
79751;SDS011;69234;47.446;21.636;2023-04-29T01:03:35;18.30;;;18.30;;
79751;SDS011;69234;47.446;21.636;2023-04-29T01:04:06;18.03;;;18.03;;
79751;SDS011;69234;47.446;21.636;2023-04-29T01:04:37;18.37;;;18.37;;
79751;SDS011;69234;47.446;21.636;2023-04-29T01:05:08;19.27;;;19.27;;
79751;SDS011;69234;47.446;21.636;2023-04-29T01:05:39;19.23;;;19.23;;
79751;SDS011;69234;47.446;21.636;2023-04-29T01:07:29;18.67;;;18.60;;
79751;SDS011;69234;47.446;21.636;2023-04-29T01:08:33;18.40;;;18.40;;
79751;SDS011;69234;47.446;21.636;2023-04-29T01:09:49;19.07;;;19.00;;
79751;SDS011;69234;47.446;21.636;2023-04-29T01:10:48;17.37;;;17.37;;
79751;SDS011;69234;47.446;21.636;2023-04-29T01:11:29;18.90;;;18.90;;
79751;SDS011;69234;47.446;21.636;2023-04-29T01:12:25;19.13;;;18.77;;
79751;SDS011;69234;47.446;21.636;2023-04-29T01:14:23;18.20;;;18.20;;
79751;SDS011;69234;47.446;21.636;2023-04-29T01:16:23;18.40;;;18.40;;
79751;SDS011;69234;47.446;21.636;2023-04-29T01:17:21;18.90;;;18.90;;
79751;SDS011;69234;47.446;21.636;2023-04-29T01:18:46;19.13;;;19.13;;
79751;SDS011;69234;47.446;21.636;2023-04-29T01:20:12;18.77;;;18.77;;
79751;SDS011;69234;47.446;21.636;2023-04-29T01:20:44;19.13;;;19.10;;
79751;SDS011;69234;47.446;21.636;2023-04-29T01:21:16;18.30;;;18.30;;
79751;SDS011;69234;47.446;21.636;2023-04-29T01:21:48;18.90;;;18.87;;
79751;SDS011;69234;47.446;21.636;2023-04-29T01:22:19;18.37;;;18.20;;
79751;SDS011;69234;47.446;21.636;2023-04-29T01:22:51;18.83;;;18.60;;
79751;SDS011;69234;47.446;21.636;2023-04-29T01:23:25;19.13;;;19.10;;
79751;SDS011;69234;47.446;21.636;2023-04-29T01:23:58;19.37;;;19.37;;
79751;SDS011;69234;47.446;21.636;2023-04-29T01:24:31;18.93;;;18.93;;
79751;SDS011;69234;47.446;21.636;2023-04-29T01:25:02;18.73;;;18.73;;
79751;SDS011;69234;47.446;21.636;2023-04-29T01:25:35;18.57;;;18.57;;
79751;SDS011;69234;47.446;21.636;2023-04-29T01:26:21;18.50;;;18.50;;
79751;SDS011;69234;47.446;21.636;2023-04-29T01:28:32;20.67;;;20.50;;
79751;SDS011;69234;47.446;21.636;2023-04-29T01:29:58;18.73;;;18.73;;
79751;SDS011;69234;47.446;21.636;2023-04-29T01:31:05;19.93;;;19.93;;
79751;SDS011;69234;47.446;21.636;2023-04-29T01:31:55;20.30;;;20.30;;
79751;SDS011;69234;47.446;21.636;2023-04-29T01:33:34;19.17;;;19.17;;
79751;SDS011;69234;47.446;21.636;2023-04-29T01:34:33;19.60;;;19.60;;
79751;SDS011;69234;47.446;21.636;2023-04-29T01:35:59;19.40;;;19.40;;
79751;SDS011;69234;47.446;21.636;2023-04-29T01:37:34;19.03;;;19.03;;
79751;SDS011;69234;47.446;21.636;2023-04-29T01:38:42;19.03;;;18.93;;
79751;SDS011;69234;47.446;21.636;2023-04-29T01:41:14;19.73;;;19.60;;
79751;SDS011;69234;47.446;21.636;2023-04-29T01:42:21;18.47;;;18.47;;
79751;SDS011;69234;47.446;21.636;2023-04-29T01:43:10;18.67;;;18.67;;
79751;SDS011;69234;47.446;21.636;2023-04-29T01:43:49;19.90;;;19.90;;
79751;SDS011;69234;47.446;21.636;2023-04-29T01:44:28;18.60;;;18.60;;
79751;SDS011;69234;47.446;21.636;2023-04-29T01:45:02;18.10;;;18.10;;
79751;SDS011;69234;47.446;21.636;2023-04-29T01:45:39;18.53;;;18.33;;
79751;SDS011;69234;47.446;21.636;2023-04-29T01:46:11;18.70;;;18.63;;
79751;SDS011;69234;47.446;21.636;2023-04-29T01:46:51;19.57;;;19.57;;
79751;SDS011;69234;47.446;21.636;2023-04-29T01:47:26;19.30;;;19.30;;
79751;SDS011;69234;47.446;21.636;2023-04-29T01:47:58;20.13;;;20.13;;
79751;SDS011;69234;47.446;21.636;2023-04-29T01:48:31;19.03;;;19.03;;
79751;SDS011;69234;47.446;21.636;2023-04-29T01:49:02;18.77;;;18.53;;
79751;SDS011;69234;47.446;21.636;2023-04-29T01:49:34;18.37;;;18.37;;
79751;SDS011;69234;47.446;21.636;2023-04-29T01:50:06;19.30;;;19.30;;
79751;SDS011;69234;47.446;21.636;2023-04-29T01:50:38;19.30;;;19.30;;
79751;SDS011;69234;47.446;21.636;2023-04-29T01:51:15;18.53;;;18.53;;
79751;SDS011;69234;47.446;21.636;2023-04-29T01:51:45;19.67;;;19.67;;
79751;SDS011;69234;47.446;21.636;2023-04-29T01:52:16;18.97;;;18.97;;
79751;SDS011;69234;47.446;21.636;2023-04-29T01:52:55;19.67;;;19.60;;
79751;SDS011;69234;47.446;21.636;2023-04-29T01:53:26;19.07;;;19.03;;
79751;SDS011;69234;47.446;21.636;2023-04-29T01:53:56;19.27;;;19.27;;
79751;SDS011;69234;47.446;21.636;2023-04-29T01:54:28;19.30;;;19.30;;
79751;SDS011;69234;47.446;21.636;2023-04-29T01:54:59;19.93;;;19.93;;
79751;SDS011;69234;47.446;21.636;2023-04-29T01:55:38;19.40;;;19.40;;
79751;SDS011;69234;47.446;21.636;2023-04-29T01:56:38;19.00;;;19.00;;
79751;SDS011;69234;47.446;21.636;2023-04-29T01:57:17;19.23;;;19.23;;
79751;SDS011;69234;47.446;21.636;2023-04-29T01:58:07;19.43;;;19.43;;
79751;SDS011;69234;47.446;21.636;2023-04-29T01:58:48;19.47;;;19.47;;
79751;SDS011;69234;47.446;21.636;2023-04-29T01:59:39;19.83;;;19.83;;
79751;SDS011;69234;47.446;21.636;2023-04-29T02:00:50;20.30;;;20.30;;
79751;SDS011;69234;47.446;21.636;2023-04-29T02:01:21;19.27;;;19.27;;
79751;SDS011;69234;47.446;21.636;2023-04-29T02:01:52;19.57;;;19.57;;
79751;SDS011;69234;47.446;21.636;2023-04-29T02:02:23;19.63;;;19.63;;
79751;SDS011;69234;47.446;21.636;2023-04-29T02:03:02;18.80;;;18.73;;
79751;SDS011;69234;47.446;21.636;2023-04-29T02:03:41;19.90;;;19.90;;
79751;SDS011;69234;47.446;21.636;2023-04-29T02:04:14;20.23;;;20.23;;
79751;SDS011;69234;47.446;21.636;2023-04-29T02:04:45;20.17;;;20.17;;
79751;SDS011;69234;47.446;21.636;2023-04-29T02:05:16;19.63;;;19.63;;
79751;SDS011;69234;47.446;21.636;2023-04-29T02:05:55;19.40;;;19.40;;
79751;SDS011;69234;47.446;21.636;2023-04-29T02:06:26;19.50;;;19.43;;
79751;SDS011;69234;47.446;21.636;2023-04-29T02:07:01;20.27;;;20.27;;
79751;SDS011;69234;47.446;21.636;2023-04-29T02:07:33;19.63;;;19.50;;
79751;SDS011;69234;47.446;21.636;2023-04-29T02:08:04;20.43;;;19.97;;
79751;SDS011;69234;47.446;21.636;2023-04-29T02:08:39;20.53;;;20.03;;
79751;SDS011;69234;47.446;21.636;2023-04-29T02:09:10;21.27;;;20.60;;
79751;SDS011;69234;47.446;21.636;2023-04-29T02:09:41;20.60;;;20.23;;
79751;SDS011;69234;47.446;21.636;2023-04-29T02:10:14;20.70;;;20.70;;
79751;SDS011;69234;47.446;21.636;2023-04-29T02:10:54;19.87;;;19.87;;
79751;SDS011;69234;47.446;21.636;2023-04-29T02:11:40;20.37;;;20.37;;
79751;SDS011;69234;47.446;21.636;2023-04-29T02:12:11;20.17;;;20.17;;
79751;SDS011;69234;47.446;21.636;2023-04-29T02:12:42;21.03;;;20.97;;
79751;SDS011;69234;47.446;21.636;2023-04-29T02:13:13;19.70;;;19.67;;
79751;SDS011;69234;47.446;21.636;2023-04-29T02:13:45;19.83;;;19.83;;
79751;SDS011;69234;47.446;21.636;2023-04-29T02:14:17;20.27;;;20.27;;
79751;SDS011;69234;47.446;21.636;2023-04-29T02:14:51;20.63;;;20.63;;
79751;SDS011;69234;47.446;21.636;2023-04-29T02:15:25;21.10;;;21.10;;
79751;SDS011;69234;47.446;21.636;2023-04-29T02:15:56;21.50;;;21.50;;
79751;SDS011;69234;47.446;21.636;2023-04-29T02:16:27;21.13;;;21.10;;
79751;SDS011;69234;47.446;21.636;2023-04-29T02:17:05;21.23;;;21.00;;
79751;SDS011;69234;47.446;21.636;2023-04-29T02:17:36;21.23;;;20.77;;
79751;SDS011;69234;47.446;21.636;2023-04-29T02:18:06;20.23;;;20.03;;
79751;SDS011;69234;47.446;21.636;2023-04-29T02:18:37;20.47;;;20.43;;
79751;SDS011;69234;47.446;21.636;2023-04-29T02:19:09;21.13;;;21.13;;
79751;SDS011;69234;47.446;21.636;2023-04-29T02:19:42;21.47;;;21.33;;
79751;SDS011;69234;47.446;21.636;2023-04-29T02:20:14;21.97;;;21.43;;
79751;SDS011;69234;47.446;21.636;2023-04-29T02:20:45;21.10;;;20.73;;
79751;SDS011;69234;47.446;21.636;2023-04-29T02:21:16;20.57;;;20.57;;
79751;SDS011;69234;47.446;21.636;2023-04-29T02:21:47;20.60;;;20.60;;
79751;SDS011;69234;47.446;21.636;2023-04-29T02:22:18;19.77;;;19.77;;
79751;SDS011;69234;47.446;21.636;2023-04-29T02:22:48;20.33;;;20.33;;
79751;SDS011;69234;47.446;21.636;2023-04-29T02:23:19;21.23;;;20.90;;
79751;SDS011;69234;47.446;21.636;2023-04-29T02:23:50;21.23;;;20.80;;
79751;SDS011;69234;47.446;21.636;2023-04-29T02:24:26;19.83;;;19.77;;
79751;SDS011;69234;47.446;21.636;2023-04-29T02:24:57;19.07;;;19.07;;
79751;SDS011;69234;47.446;21.636;2023-04-29T02:25:27;19.43;;;19.43;;
79751;SDS011;69234;47.446;21.636;2023-04-29T02:25:58;20.37;;;20.37;;
79751;SDS011;69234;47.446;21.636;2023-04-29T02:26:30;19.37;;;19.27;;
79751;SDS011;69234;47.446;21.636;2023-04-29T02:27:03;19.53;;;19.53;;
79751;SDS011;69234;47.446;21.636;2023-04-29T02:27:35;20.33;;;20.33;;
79751;SDS011;69234;47.446;21.636;2023-04-29T02:28:05;20.03;;;20.03;;
79751;SDS011;69234;47.446;21.636;2023-04-29T02:28:36;20.17;;;20.13;;
79751;SDS011;69234;47.446;21.636;2023-04-29T02:29:08;20.47;;;20.20;;
79751;SDS011;69234;47.446;21.636;2023-04-29T02:29:39;20.63;;;20.10;;
79751;SDS011;69234;47.446;21.636;2023-04-29T02:30:09;20.57;;;20.13;;
79751;SDS011;69234;47.446;21.636;2023-04-29T02:30:40;21.13;;;21.07;;
79751;SDS011;69234;47.446;21.636;2023-04-29T02:31:11;21.13;;;21.00;;
79751;SDS011;69234;47.446;21.636;2023-04-29T02:31:42;20.67;;;20.67;;
79751;SDS011;69234;47.446;21.636;2023-04-29T02:32:13;20.63;;;20.63;;
79751;SDS011;69234;47.446;21.636;2023-04-29T02:32:45;20.67;;;20.43;;
79751;SDS011;69234;47.446;21.636;2023-04-29T02:33:17;20.97;;;20.70;;
79751;SDS011;69234;47.446;21.636;2023-04-29T02:33:49;20.97;;;20.97;;
79751;SDS011;69234;47.446;21.636;2023-04-29T02:34:20;20.77;;;20.77;;
79751;SDS011;69234;47.446;21.636;2023-04-29T02:34:51;20.63;;;20.63;;
79751;SDS011;69234;47.446;21.636;2023-04-29T02:35:22;20.67;;;20.67;;
79751;SDS011;69234;47.446;21.636;2023-04-29T02:35:52;21.03;;;21.03;;
79751;SDS011;69234;47.446;21.636;2023-04-29T02:36:23;21.77;;;21.77;;
79751;SDS011;69234;47.446;21.636;2023-04-29T02:36:55;21.70;;;21.70;;
79751;SDS011;69234;47.446;21.636;2023-04-29T02:37:26;21.50;;;21.50;;
79751;SDS011;69234;47.446;21.636;2023-04-29T02:37:57;21.47;;;21.47;;
79751;SDS011;69234;47.446;21.636;2023-04-29T02:38:28;21.57;;;21.57;;
79751;SDS011;69234;47.446;21.636;2023-04-29T02:38:59;21.20;;;21.20;;
79751;SDS011;69234;47.446;21.636;2023-04-29T02:39:29;21.80;;;21.53;;
79751;SDS011;69234;47.446;21.636;2023-04-29T02:40:00;21.63;;;21.57;;
79751;SDS011;69234;47.446;21.636;2023-04-29T02:40:34;21.53;;;21.47;;
79751;SDS011;69234;47.446;21.636;2023-04-29T02:41:14;22.10;;;22.07;;
79751;SDS011;69234;47.446;21.636;2023-04-29T02:41:48;22.47;;;22.47;;
79751;SDS011;69234;47.446;21.636;2023-04-29T02:42:19;22.53;;;22.50;;
79751;SDS011;69234;47.446;21.636;2023-04-29T02:42:49;22.50;;;22.40;;
79751;SDS011;69234;47.446;21.636;2023-04-29T02:43:20;22.67;;;22.67;;
79751;SDS011;69234;47.446;21.636;2023-04-29T02:43:51;22.90;;;22.87;;
79751;SDS011;69234;47.446;21.636;2023-04-29T02:44:22;23.03;;;23.03;;
79751;SDS011;69234;47.446;21.636;2023-04-29T02:44:53;21.63;;;21.63;;
79751;SDS011;69234;47.446;21.636;2023-04-29T02:45:24;22.40;;;22.33;;
79751;SDS011;69234;47.446;21.636;2023-04-29T02:45:55;22.43;;;22.37;;
79751;SDS011;69234;47.446;21.636;2023-04-29T02:46:26;22.30;;;22.17;;
79751;SDS011;69234;47.446;21.636;2023-04-29T02:46:57;23.47;;;23.00;;
79751;SDS011;69234;47.446;21.636;2023-04-29T02:47:28;23.50;;;23.47;;
79751;SDS011;69234;47.446;21.636;2023-04-29T02:47:59;23.43;;;23.43;;
79751;SDS011;69234;47.446;21.636;2023-04-29T02:48:30;23.40;;;23.40;;
79751;SDS011;69234;47.446;21.636;2023-04-29T02:49:00;22.83;;;22.70;;
79751;SDS011;69234;47.446;21.636;2023-04-29T02:49:32;22.37;;;22.03;;
79751;SDS011;69234;47.446;21.636;2023-04-29T02:50:03;21.93;;;21.90;;
79751;SDS011;69234;47.446;21.636;2023-04-29T02:50:35;21.97;;;21.97;;
79751;SDS011;69234;47.446;21.636;2023-04-29T02:51:07;23.00;;;23.00;;
79751;SDS011;69234;47.446;21.636;2023-04-29T02:51:38;22.63;;;22.63;;
79751;SDS011;69234;47.446;21.636;2023-04-29T02:52:10;23.20;;;23.17;;
79751;SDS011;69234;47.446;21.636;2023-04-29T02:52:41;22.90;;;22.90;;
79751;SDS011;69234;47.446;21.636;2023-04-29T02:53:12;23.43;;;23.40;;
79751;SDS011;69234;47.446;21.636;2023-04-29T02:53:43;22.10;;;22.10;;
79751;SDS011;69234;47.446;21.636;2023-04-29T02:54:14;22.20;;;22.20;;
79751;SDS011;69234;47.446;21.636;2023-04-29T02:54:46;22.17;;;22.17;;
79751;SDS011;69234;47.446;21.636;2023-04-29T02:55:16;21.47;;;21.47;;
79751;SDS011;69234;47.446;21.636;2023-04-29T02:55:47;21.97;;;21.97;;
79751;SDS011;69234;47.446;21.636;2023-04-29T02:56:18;22.73;;;22.73;;
79751;SDS011;69234;47.446;21.636;2023-04-29T02:56:49;22.40;;;22.40;;
79751;SDS011;69234;47.446;21.636;2023-04-29T02:57:20;22.53;;;22.53;;
79751;SDS011;69234;47.446;21.636;2023-04-29T02:57:50;24.20;;;24.20;;
79751;SDS011;69234;47.446;21.636;2023-04-29T02:58:22;23.37;;;23.20;;
79751;SDS011;69234;47.446;21.636;2023-04-29T02:58:53;22.43;;;22.07;;
79751;SDS011;69234;47.446;21.636;2023-04-29T02:59:23;23.60;;;23.03;;
79751;SDS011;69234;47.446;21.636;2023-04-29T02:59:54;24.20;;;24.13;;
79751;SDS011;69234;47.446;21.636;2023-04-29T03:00:25;23.83;;;23.73;;
79751;SDS011;69234;47.446;21.636;2023-04-29T03:00:56;24.30;;;24.00;;
79751;SDS011;69234;47.446;21.636;2023-04-29T03:01:27;24.90;;;24.77;;
79751;SDS011;69234;47.446;21.636;2023-04-29T03:01:58;24.67;;;24.57;;
79751;SDS011;69234;47.446;21.636;2023-04-29T03:02:29;24.87;;;24.77;;
79751;SDS011;69234;47.446;21.636;2023-04-29T03:03:02;25.57;;;25.13;;
79751;SDS011;69234;47.446;21.636;2023-04-29T03:03:33;26.03;;;25.40;;
79751;SDS011;69234;47.446;21.636;2023-04-29T03:04:04;25.57;;;25.23;;
79751;SDS011;69234;47.446;21.636;2023-04-29T03:04:35;25.10;;;25.10;;
79751;SDS011;69234;47.446;21.636;2023-04-29T03:05:06;24.87;;;24.87;;
79751;SDS011;69234;47.446;21.636;2023-04-29T03:05:38;24.77;;;24.77;;
79751;SDS011;69234;47.446;21.636;2023-04-29T03:06:09;24.13;;;24.13;;
79751;SDS011;69234;47.446;21.636;2023-04-29T03:06:39;24.73;;;24.73;;
79751;SDS011;69234;47.446;21.636;2023-04-29T03:07:11;25.17;;;25.13;;
79751;SDS011;69234;47.446;21.636;2023-04-29T03:07:41;24.93;;;24.80;;
79751;SDS011;69234;47.446;21.636;2023-04-29T03:08:13;24.50;;;24.50;;
79751;SDS011;69234;47.446;21.636;2023-04-29T03:08:45;25.80;;;25.53;;
79751;SDS011;69234;47.446;21.636;2023-04-29T03:09:15;25.17;;;24.77;;
79751;SDS011;69234;47.446;21.636;2023-04-29T03:09:49;24.57;;;24.40;;
79751;SDS011;69234;47.446;21.636;2023-04-29T03:10:20;24.50;;;24.23;;
79751;SDS011;69234;47.446;21.636;2023-04-29T03:10:50;24.00;;;24.00;;
79751;SDS011;69234;47.446;21.636;2023-04-29T03:11:22;23.70;;;23.70;;
79751;SDS011;69234;47.446;21.636;2023-04-29T03:11:56;24.93;;;24.63;;
79751;SDS011;69234;47.446;21.636;2023-04-29T03:12:27;24.83;;;24.40;;
79751;SDS011;69234;47.446;21.636;2023-04-29T03:12:58;25.20;;;24.97;;
79751;SDS011;69234;47.446;21.636;2023-04-29T03:13:29;25.13;;;25.03;;
79751;SDS011;69234;47.446;21.636;2023-04-29T03:13:59;27.17;;;26.67;;
79751;SDS011;69234;47.446;21.636;2023-04-29T03:14:30;26.97;;;26.23;;
79751;SDS011;69234;47.446;21.636;2023-04-29T03:15:02;26.57;;;26.00;;
79751;SDS011;69234;47.446;21.636;2023-04-29T03:15:34;25.90;;;25.70;;
79751;SDS011;69234;47.446;21.636;2023-04-29T03:16:04;25.50;;;25.50;;
79751;SDS011;69234;47.446;21.636;2023-04-29T03:16:36;25.30;;;25.30;;
79751;SDS011;69234;47.446;21.636;2023-04-29T03:17:07;26.37;;;26.37;;
79751;SDS011;69234;47.446;21.636;2023-04-29T03:17:38;26.60;;;26.60;;
79751;SDS011;69234;47.446;21.636;2023-04-29T03:18:09;25.97;;;25.97;;
79751;SDS011;69234;47.446;21.636;2023-04-29T03:18:40;25.93;;;25.93;;
79751;SDS011;69234;47.446;21.636;2023-04-29T03:19:11;26.13;;;25.87;;
79751;SDS011;69234;47.446;21.636;2023-04-29T03:19:42;26.23;;;26.03;;
79751;SDS011;69234;47.446;21.636;2023-04-29T03:20:13;26.73;;;26.50;;
79751;SDS011;69234;47.446;21.636;2023-04-29T03:20:43;25.70;;;25.67;;
79751;SDS011;69234;47.446;21.636;2023-04-29T03:21:14;25.20;;;25.20;;
79751;SDS011;69234;47.446;21.636;2023-04-29T03:21:45;25.87;;;25.83;;
79751;SDS011;69234;47.446;21.636;2023-04-29T03:22:16;25.77;;;25.63;;
79751;SDS011;69234;47.446;21.636;2023-04-29T03:22:47;25.97;;;25.97;;
79751;SDS011;69234;47.446;21.636;2023-04-29T03:23:17;26.23;;;26.23;;
79751;SDS011;69234;47.446;21.636;2023-04-29T03:23:48;26.83;;;26.67;;
79751;SDS011;69234;47.446;21.636;2023-04-29T03:24:26;28.07;;;27.40;;